Aérodrome :
LOGIN :

S'inscrire | Disclaimer

   EN    FR    IT 

 










Légende :    VFR   VFR Marginal   IFR   IFR Intensif   IFR Très Intensif
Visi : 
Plafond : 
>= 8 km
>= 3000ft
5 à 8 km
1000 à 3000 ft
1500m à 5 km
500 à 1000 ft
800 à 1500m
200 à 500 ft
< 800m
< 200 ft
Symboles :   Orages  Brouillard  Fortes neiges  Fortes précipitations  Vent > 20 kt
SIGMETs :   Divers  Orages  Givrage  Turbulence  Onde Orograph.  Cendres Volcan.






- Altitude de l'aérodrome : 184 ft
- Code IATA : BRU


EBBR - Bruxelles

DERNIER METAR :
  • 150750Z 19004KT 9999 FEW013 BKN048 15/14 Q1006 TEMPO 4000 RA SHRA BKN014

METARs EXPIRÉS :
  • 150720Z 19003KT 9999 FEW015 BKN045 15/13 Q1006 TEMPO 4000 RA SHRA BKN014
  • 150650Z 21004KT 9999 BKN042 14/13 Q1006 NOSIG
  • 150620Z 19004KT 9999 FEW030 14/13 Q1005 NOSIG
  • 150550Z 22005KT 9999 FEW014 SCT026 14/13 Q1005 TEMPO 4000 RA
  • 150520Z 22006KT 9999 -RA FEW031 15/12 Q1005 TEMPO 4000 RA

TAF TAF EBBR
Valide du 15 à 06h jusqu'au 16 à 12h UTC


150500Z 1506/1612 23005KT 9999 FEW015 SCT020
PROB30
TEMPO 1506/1518 4000 RA SHRA BKN014 SCT020CB
TEMPO 1607/1612 4000 RA BKN012



MET'MAP, la Météo Aéronautique d'un coup d'oeil ! - Copyright ORBIFLY Décembre 2007 - Disclaimer

ORBIFLY MET'MAP TEAM :

Programmation & Développement : Alexandra Zaïnal
Conception & Développement : Baudouin d'Aumeries
Co-Programmation & Développement : Marc-Olivier Méhu
Soutien technique & logistique : Manuel Goepfert

Contact : metmap@orbifly.com




SOURCES & CREDITS :

   NOAA